createdAt,value
2023-03-28T00:01:39.877Z,43.92
2023-03-28T00:04:13.155Z,43.95
2023-03-28T00:06:46.980Z,43.89
2023-03-28T00:09:20.112Z,43.88
2023-03-28T00:11:54.120Z,43.88
2023-03-28T00:14:27.949Z,43.88
2023-03-28T00:17:00.775Z,43.88
2023-03-28T00:19:33.602Z,43.96
2023-03-28T00:22:07.037Z,43.96
2023-03-28T00:24:39.870Z,43.97
2023-03-28T00:27:13.103Z,43.93
2023-03-28T00:29:47.084Z,43.96
2023-03-28T00:32:20.972Z,43.94
2023-03-28T00:34:54.005Z,43.93
2023-03-28T00:37:26.793Z,43.91
2023-03-28T00:40:00.191Z,43.95
2023-03-28T00:42:33.931Z,43.99
2023-03-28T00:45:06.965Z,43.94
2023-03-28T00:47:40.016Z,43.97
2023-03-28T00:50:12.926Z,43.97
2023-03-28T00:52:45.931Z,43.95
2023-03-28T00:55:18.960Z,43.96
2023-03-28T00:57:51.848Z,43.94
2023-03-28T01:00:24.979Z,43.95
2023-03-28T01:02:58.141Z,43.96
2023-03-28T01:05:31.017Z,43.94
2023-03-28T01:08:04.076Z,43.96
2023-03-28T01:10:36.960Z,43.95
2023-03-28T01:13:10.241Z,43.95
2023-03-28T01:15:44.005Z,43.95
2023-03-28T01:18:17.182Z,43.97
2023-03-28T01:20:50.074Z,43.97
2023-03-28T01:23:22.986Z,43.97
2023-03-28T01:25:55.926Z,43.94
2023-03-28T01:28:29.027Z,43.93
2023-03-28T01:31:02.229Z,43.93
2023-03-28T01:33:36.089Z,43.93
2023-03-28T01:36:09.057Z,43.94
2023-03-28T01:38:41.988Z,43.91
2023-03-28T01:41:14.956Z,43.95
2023-03-28T01:43:47.810Z,43.96
2023-03-28T01:46:21.093Z,43.94
2023-03-28T01:48:54.134Z,43.98
2023-03-28T01:51:27.104Z,44.05
2023-03-28T01:54:03.956Z,44.13
2023-03-28T01:56:37.067Z,44.11
2023-03-28T01:59:10.094Z,44.17
2023-03-28T02:01:43.089Z,44.11
2023-03-28T02:04:20.413Z,44.11
2023-03-28T02:07:03.132Z,44.10
2023-03-28T02:09:36.069Z,44.09
2023-03-28T02:12:09.154Z,44.04
2023-03-28T02:14:42.034Z,44.03
2023-03-28T02:17:15.158Z,44.03
2023-03-28T02:19:48.185Z,44.01
2023-03-28T02:22:21.099Z,44.04
2023-03-28T02:24:54.336Z,44.04
2023-03-28T02:27:28.064Z,44.04
2023-03-28T02:30:01.225Z,44.00
2023-03-28T02:32:34.954Z,44.00
2023-03-28T02:35:08.212Z,43.97
2023-03-28T02:37:41.051Z,43.98
2023-03-28T02:40:14.212Z,44.00
2023-03-28T02:42:46.901Z,44.00
2023-03-28T02:45:20.089Z,43.99
2023-03-28T02:47:53.210Z,43.98
2023-03-28T02:50:26.147Z,43.97
2023-03-28T02:52:59.087Z,43.99
2023-03-28T02:55:32.178Z,43.97
2023-03-28T02:58:05.095Z,43.97
2023-03-28T03:00:38.131Z,43.96
2023-03-28T03:03:11.230Z,43.96
2023-03-28T03:05:44.186Z,43.94
2023-03-28T03:08:16.910Z,43.94
2023-03-28T03:10:50.259Z,43.91
2023-03-28T03:13:23.152Z,43.88
2023-03-28T03:15:56.508Z,43.87
2023-03-28T03:18:28.919Z,43.84
2023-03-28T03:21:02.461Z,43.81
2023-03-28T03:23:36.299Z,43.80
2023-03-28T03:26:09.049Z,43.79
2023-03-28T03:28:42.168Z,43.77
2023-03-28T03:31:15.022Z,43.75
2023-03-28T03:33:48.379Z,43.72
2023-03-28T03:36:22.235Z,43.71
2023-03-28T03:38:55.243Z,43.72
2023-03-28T03:41:28.057Z,43.70
2023-03-28T03:44:01.327Z,43.71
2023-03-28T03:46:33.948Z,43.72
2023-03-28T03:49:07.231Z,43.71
2023-03-28T03:51:40.245Z,43.71
2023-03-28T03:54:13.284Z,43.69
2023-03-28T03:56:45.983Z,43.67
2023-03-28T03:59:19.023Z,43.70
2023-03-28T04:01:52.279Z,43.74
2023-03-28T04:04:25.264Z,43.74
2023-03-28T04:06:58.167Z,43.72
2023-03-28T04:09:34.230Z,43.72
2023-03-28T04:12:07.132Z,43.71
2023-03-28T04:14:39.937Z,43.70
2023-03-28T04:17:13.102Z,43.69
2023-03-28T04:19:45.962Z,43.70
2023-03-28T04:22:19.008Z,43.70
2023-03-28T04:24:52.310Z,43.68
2023-03-28T04:27:25.358Z,43.69
2023-03-28T04:29:58.595Z,43.70
2023-03-28T04:32:32.198Z,43.71
2023-03-28T04:35:05.010Z,43.70
2023-03-28T04:37:38.332Z,43.71
2023-03-28T04:40:11.148Z,43.73
2023-03-28T04:42:58.285Z,43.73
2023-03-28T04:45:31.318Z,43.75
2023-03-28T04:48:04.369Z,43.72
2023-03-28T04:50:37.213Z,43.73
2023-03-28T04:53:10.176Z,43.75
2023-03-28T04:55:43.032Z,43.76
2023-03-28T04:58:16.022Z,43.71
2023-03-28T05:00:49.340Z,43.75
2023-03-28T05:03:35.970Z,43.78
2023-03-28T05:06:09.307Z,43.76
2023-03-28T05:08:42.327Z,43.76
2023-03-28T05:11:15.058Z,43.79
2023-03-28T05:13:48.365Z,43.79
2023-03-28T05:16:21.067Z,43.80
2023-03-28T05:18:54.209Z,43.78
2023-03-28T05:21:27.413Z,43.73
2023-03-28T05:24:00.095Z,43.72
2023-03-28T05:26:33.318Z,43.72
2023-03-28T05:29:06.382Z,43.82
2023-03-28T05:31:40.659Z,43.73
2023-03-28T05:34:14.581Z,43.74
2023-03-28T05:36:48.379Z,43.67
2023-03-28T05:39:35.402Z,43.44
2023-03-28T05:42:12.100Z,43.52
2023-03-28T05:44:45.088Z,43.42
2023-03-28T05:47:18.410Z,43.54
2023-03-28T05:49:53.195Z,43.46
2023-03-28T05:52:24.262Z,43.53
2023-03-28T05:54:57.235Z,43.52
2023-03-28T05:57:30.221Z,43.42
2023-03-28T06:00:03.363Z,43.42
2023-03-28T06:02:36.485Z,43.02
2023-03-28T06:05:09.279Z,43.39
2023-03-28T06:07:43.108Z,43.27
2023-03-28T06:10:15.168Z,43.21
2023-03-28T06:12:48.128Z,43.18
2023-03-28T06:15:21.408Z,43.19
2023-03-28T06:17:54.568Z,43.18
2023-03-28T06:20:27.282Z,43.12
2023-03-28T06:23:00.505Z,43.11
2023-03-28T06:25:33.309Z,43.10
2023-03-28T06:28:06.525Z,43.09
2023-03-28T06:30:39.346Z,43.08
2023-03-28T06:33:12.494Z,43.01
2023-03-28T06:35:45.359Z,43.01
2023-03-28T06:38:18.607Z,42.98
2023-03-28T06:40:51.182Z,43.00
2023-03-28T06:43:24.482Z,42.97
2023-03-28T06:45:57.576Z,42.96
2023-03-28T06:48:30.316Z,42.89
2023-03-28T06:51:03.661Z,42.91
2023-03-28T06:53:37.461Z,42.89
2023-03-28T06:56:10.519Z,42.87
2023-03-28T06:58:43.734Z,42.82
2023-03-28T07:01:17.427Z,42.83
2023-03-28T07:03:52.324Z,42.80
2023-03-28T07:06:23.536Z,42.79
2023-03-28T07:08:56.670Z,42.78
2023-03-28T07:11:30.644Z,42.77
2023-03-28T07:14:03.323Z,42.77
2023-03-28T07:16:36.300Z,42.73
2023-03-28T07:19:09.567Z,42.69
2023-03-28T07:21:42.570Z,42.70
2023-03-28T07:24:15.747Z,42.69
2023-03-28T07:26:49.416Z,42.68
2023-03-28T07:29:22.443Z,42.67
2023-03-28T07:31:55.254Z,42.63
2023-03-28T07:34:28.466Z,42.62
2023-03-28T07:37:01.390Z,42.62
2023-03-28T07:39:34.859Z,42.59
2023-03-28T07:42:08.686Z,42.61
2023-03-28T07:44:42.502Z,42.59
2023-03-28T07:47:14.633Z,42.59
2023-03-28T07:49:47.592Z,42.55
2023-03-28T07:52:20.588Z,42.58
2023-03-28T07:57:43.846Z,42.51
2023-03-28T08:00:17.600Z,42.55
2023-03-28T08:02:50.719Z,42.51
2023-03-28T08:05:23.644Z,42.52
2023-03-28T08:07:56.596Z,42.52
2023-03-28T08:10:29.695Z,42.50
2023-03-28T08:13:02.699Z,42.46
2023-03-28T08:15:35.420Z,42.48
2023-03-28T08:18:08.876Z,42.48
2023-03-28T08:20:42.641Z,42.46
2023-03-28T08:23:15.749Z,42.50
2023-03-28T08:25:48.648Z,42.44
2023-03-28T08:28:21.743Z,42.45
2023-03-28T08:30:54.369Z,42.43
2023-03-28T08:33:27.644Z,42.43
2023-03-28T08:36:00.552Z,42.43
2023-03-28T08:38:33.745Z,42.42
2023-03-28T08:41:06.846Z,42.41
2023-03-28T08:43:40.746Z,42.41
2023-03-28T08:46:13.738Z,42.39
2023-03-28T08:48:46.715Z,42.36
2023-03-28T08:51:19.647Z,42.33
2023-03-28T08:53:52.654Z,42.31
2023-03-28T08:56:25.521Z,42.32
2023-03-28T08:58:58.712Z,42.31
2023-03-28T09:01:31.753Z,42.29
2023-03-28T09:04:07.793Z,42.32
2023-03-28T09:06:40.766Z,42.29
2023-03-28T09:09:13.711Z,42.28
2023-03-28T09:11:46.995Z,42.31
2023-03-28T09:14:21.001Z,42.29
2023-03-28T09:16:54.491Z,42.31
2023-03-28T09:19:33.979Z,42.30
2023-03-28T09:22:12.423Z,42.31
2023-03-28T09:24:33.536Z,42.30
2023-03-28T09:27:06.749Z,42.32
2023-03-28T09:29:39.570Z,42.31
2023-03-28T09:32:12.934Z,42.30
2023-03-28T09:34:47.131Z,42.30
2023-03-28T09:37:20.440Z,42.33
2023-03-28T09:39:53.844Z,42.31
2023-03-28T09:42:26.742Z,42.29
2023-03-28T09:44:59.799Z,42.29
2023-03-28T09:47:32.851Z,42.29
2023-03-28T09:50:12.830Z,42.29
2023-03-28T09:52:38.785Z,42.31
2023-03-28T09:55:11.460Z,42.26
2023-03-28T09:57:44.789Z,42.29
2023-03-28T10:00:17.813Z,42.30
2023-03-28T10:02:50.684Z,42.26
2023-03-28T10:05:23.759Z,42.28
2023-03-28T10:07:56.482Z,42.29
2023-03-28T10:10:29.502Z,42.28
2023-03-28T10:13:02.763Z,42.29
2023-03-28T10:15:35.999Z,42.28
2023-03-28T10:18:08.972Z,42.25
2023-03-28T10:20:42.707Z,42.25
2023-03-28T10:23:15.658Z,42.24
2023-03-28T10:25:48.594Z,42.24
2023-03-28T10:28:21.494Z,42.24
2023-03-28T10:30:54.734Z,42.26
2023-03-28T10:33:27.823Z,42.25
2023-03-28T10:36:00.679Z,42.25
2023-03-28T10:38:33.807Z,42.23
2023-03-28T10:41:06.648Z,42.23
2023-03-28T10:43:39.832Z,42.23
2023-03-28T10:46:12.695Z,42.23
2023-03-28T10:48:45.841Z,42.22
2023-03-28T10:51:18.537Z,42.21
2023-03-28T10:53:51.784Z,42.22
2023-03-28T10:56:24.578Z,42.23
2023-03-28T10:58:57.841Z,42.21
2023-03-28T11:01:33.194Z,42.23
2023-03-28T11:04:03.854Z,42.20
2023-03-28T11:06:36.742Z,42.20
2023-03-28T11:09:09.866Z,42.21
2023-03-28T11:14:33.008Z,42.16
2023-03-28T11:17:06.961Z,42.10
2023-03-28T11:19:39.829Z,42.15
2023-03-28T11:22:12.974Z,42.13
2023-03-28T11:24:45.883Z,42.29
2023-03-28T11:27:18.858Z,42.39
2023-03-28T11:29:51.949Z,42.45
2023-03-28T11:32:25.095Z,42.40
2023-03-28T11:34:57.631Z,42.46
2023-03-28T11:37:30.954Z,42.43
2023-03-28T11:40:06.551Z,42.48
2023-03-28T11:42:37.044Z,42.54
2023-03-28T11:45:09.849Z,42.55
2023-03-28T11:47:43.007Z,42.60
2023-03-28T11:50:15.628Z,42.58
2023-03-28T11:52:48.734Z,42.60
2023-03-28T11:55:21.922Z,42.66
2023-03-28T11:57:54.944Z,42.69
2023-03-28T12:00:33.950Z,42.68
2023-03-28T12:03:01.883Z,42.65
2023-03-28T12:08:11.161Z,42.68
2023-03-28T12:10:45.016Z,42.63
2023-03-28T12:13:17.969Z,42.45
2023-03-28T12:15:50.972Z,42.53
2023-03-28T12:18:23.984Z,42.55
2023-03-28T12:20:56.856Z,42.63
2023-03-28T12:23:32.905Z,42.62
2023-03-28T12:26:06.021Z,42.61
2023-03-28T12:28:39.144Z,42.65
2023-03-28T12:31:13.061Z,42.68
2023-03-28T12:33:46.062Z,42.67
2023-03-28T12:36:19.033Z,42.66
2023-03-28T12:38:53.907Z,42.68
2023-03-28T12:41:24.991Z,42.64
2023-03-28T12:43:57.996Z,42.71
2023-03-28T12:46:31.178Z,42.68
2023-03-28T12:49:04.039Z,42.68
2023-03-28T12:51:37.020Z,42.69
2023-03-28T12:54:10.076Z,42.65
2023-03-28T12:56:43.178Z,42.71
2023-03-28T12:59:15.998Z,42.68
2023-03-28T13:01:49.173Z,42.68
2023-03-28T13:04:22.133Z,42.67
2023-03-28T13:06:55.107Z,42.67
2023-03-28T13:09:28.081Z,42.67
2023-03-28T13:12:01.063Z,42.66
2023-03-28T13:14:34.145Z,42.65
2023-03-28T13:17:07.114Z,42.66
2023-03-28T13:19:40.150Z,42.65
2023-03-28T13:22:13.291Z,42.65
2023-03-28T13:24:47.968Z,42.63
2023-03-28T13:27:20.044Z,42.66
2023-03-28T13:29:53.064Z,42.62
2023-03-28T13:32:26.175Z,42.60
2023-03-28T13:35:12.988Z,42.62
2023-03-28T13:37:46.134Z,42.63
2023-03-28T13:40:19.071Z,42.55
2023-03-28T13:42:52.191Z,42.58
2023-03-28T13:45:25.118Z,42.56
2023-03-28T13:48:12.117Z,42.58
2023-03-28T13:50:31.168Z,42.59
2023-03-28T13:53:04.089Z,42.55
2023-03-28T13:55:37.136Z,42.65
2023-03-28T13:58:10.153Z,42.63
2023-03-28T14:00:43.098Z,42.64
2023-03-28T14:03:15.844Z,42.64
2023-03-28T14:05:48.983Z,42.63
2023-03-28T14:08:22.120Z,42.58
2023-03-28T14:10:55.237Z,42.69
2023-03-28T14:13:27.941Z,42.67
2023-03-28T14:16:01.126Z,42.68
2023-03-28T14:18:34.221Z,42.59
2023-03-28T14:21:07.185Z,42.64
2023-03-28T14:23:40.200Z,42.63
2023-03-28T14:26:13.331Z,42.59
2023-03-28T14:28:47.240Z,42.63
2023-03-28T14:31:19.930Z,42.63
2023-03-28T14:33:53.193Z,42.62
2023-03-28T14:36:26.257Z,42.63
2023-03-28T14:38:58.973Z,42.58
2023-03-28T14:41:32.223Z,42.04
2023-03-28T14:44:05.180Z,40.87
2023-03-28T14:46:38.327Z,41.37
2023-03-28T14:49:11.041Z,41.34
2023-03-28T14:51:44.275Z,41.53
2023-03-28T14:54:17.174Z,41.42
2023-03-28T14:56:50.360Z,41.47
2023-03-28T14:59:23.183Z,41.55
2023-03-28T15:01:56.227Z,41.53
2023-03-28T15:04:29.001Z,41.53
2023-03-28T15:07:01.941Z,41.59
2023-03-28T15:09:35.472Z,41.66
2023-03-28T15:12:09.700Z,41.70
2023-03-28T15:14:43.323Z,41.75
2023-03-28T15:17:16.242Z,41.79
2023-03-28T15:19:49.353Z,41.79
2023-03-28T15:22:22.236Z,41.84
2023-03-28T15:24:55.274Z,41.90
2023-03-28T15:27:28.028Z,41.92
2023-03-28T15:30:01.310Z,41.92
2023-03-28T15:32:34.382Z,41.94
2023-03-28T15:35:07.330Z,41.91
2023-03-28T15:37:40.155Z,41.94
2023-03-28T15:40:13.332Z,41.98
2023-03-28T15:42:46.084Z,41.96
2023-03-28T15:45:19.282Z,42.03
2023-03-28T15:47:52.454Z,41.99
2023-03-28T15:50:25.410Z,42.02
2023-03-28T15:52:59.013Z,41.99
2023-03-28T15:55:32.432Z,41.96
2023-03-28T15:58:06.258Z,41.98
2023-03-28T16:00:39.562Z,41.97
2023-03-28T16:03:13.289Z,42.00
2023-03-28T16:05:46.255Z,42.06
2023-03-28T16:08:19.210Z,42.05
2023-03-28T16:10:52.181Z,42.04
2023-03-28T16:13:25.472Z,42.08
2023-03-28T16:15:58.175Z,42.13
2023-03-28T16:18:31.372Z,42.15
2023-03-28T16:21:04.042Z,42.19
2023-03-28T16:23:37.165Z,42.18
2023-03-28T16:26:10.189Z,42.12
2023-03-28T16:28:43.372Z,42.06
2023-03-28T16:31:16.331Z,42.03
2023-03-28T16:33:49.368Z,41.99
2023-03-28T16:36:22.353Z,41.94
2023-03-28T16:38:55.423Z,41.91
2023-03-28T16:41:28.495Z,41.72
2023-03-28T16:44:01.366Z,41.86
2023-03-28T16:46:36.219Z,41.89
2023-03-28T16:49:09.278Z,41.93
2023-03-28T16:51:42.337Z,41.97
2023-03-28T16:54:15.258Z,42.02
2023-03-28T16:56:48.244Z,42.02
2023-03-28T16:59:21.349Z,41.99
2023-03-28T17:01:54.229Z,42.05
2023-03-28T17:04:29.417Z,42.01
2023-03-28T17:07:00.112Z,42.02
2023-03-28T17:09:33.423Z,42.07
2023-03-28T17:12:06.227Z,42.12
2023-03-28T17:14:39.321Z,42.12
2023-03-28T17:17:12.477Z,42.09
2023-03-28T17:19:45.501Z,42.15
2023-03-28T17:22:18.135Z,42.21
2023-03-28T17:24:51.265Z,42.23
2023-03-28T17:27:24.139Z,42.27
2023-03-28T17:29:57.119Z,42.24
2023-03-28T17:32:30.131Z,42.29
2023-03-28T17:35:03.130Z,42.26
2023-03-28T17:37:36.139Z,42.29
2023-03-28T17:40:09.181Z,42.36
2023-03-28T17:42:42.153Z,42.28
2023-03-28T17:45:15.152Z,42.28
2023-03-28T17:47:48.483Z,42.30
2023-03-28T17:50:21.445Z,42.27
2023-03-28T17:52:54.346Z,42.35
2023-03-28T17:55:27.371Z,42.33
2023-03-28T17:58:00.172Z,42.39
2023-03-28T18:00:33.367Z,42.36
2023-03-28T18:03:06.504Z,42.40
2023-03-28T18:05:39.162Z,42.40
2023-03-28T18:08:12.476Z,42.31
2023-03-28T18:10:45.499Z,42.33
2023-03-28T18:13:18.219Z,42.34
2023-03-28T18:15:51.425Z,42.38
2023-03-28T18:18:24.202Z,42.42
2023-03-28T18:20:57.447Z,42.42
2023-03-28T18:23:30.353Z,42.34
2023-03-28T18:26:03.690Z,42.33
2023-03-28T18:28:36.227Z,42.35
2023-03-28T18:31:09.394Z,42.40
2023-03-28T18:33:42.377Z,42.37
2023-03-28T18:36:15.286Z,42.30
2023-03-28T18:38:48.428Z,42.33
2023-03-28T18:41:21.346Z,42.36
2023-03-28T18:43:54.425Z,42.40
2023-03-28T18:46:27.431Z,42.41
2023-03-28T18:49:00.282Z,42.37
2023-03-28T18:51:33.644Z,42.39
2023-03-28T18:54:06.559Z,42.46
2023-03-28T18:56:39.434Z,42.40
2023-03-28T18:59:12.452Z,42.48
2023-03-28T19:01:45.499Z,42.36
2023-03-28T19:04:18.387Z,42.32
2023-03-28T19:06:51.499Z,42.46
2023-03-28T19:09:24.269Z,42.46
2023-03-28T19:11:57.518Z,42.47
2023-03-28T19:14:30.779Z,42.47
2023-03-28T19:17:04.425Z,42.38
2023-03-28T19:19:37.621Z,42.47
2023-03-28T19:22:10.994Z,42.29
2023-03-28T19:24:44.336Z,42.13
2023-03-28T19:27:17.592Z,42.07
2023-03-28T19:29:50.329Z,42.05
2023-03-28T19:32:23.338Z,41.62
2023-03-28T19:34:56.441Z,41.85
2023-03-28T19:37:29.642Z,41.95
2023-03-28T19:40:06.425Z,42.04
2023-03-28T19:42:39.554Z,42.07
2023-03-28T19:45:12.646Z,42.08
2023-03-28T19:47:45.884Z,42.02
2023-03-28T19:50:19.595Z,42.12
2023-03-28T19:52:52.710Z,42.15
2023-03-28T19:55:25.567Z,42.14
2023-03-28T19:57:58.508Z,42.20
2023-03-28T20:00:35.387Z,42.19
2023-03-28T20:03:08.427Z,42.19
2023-03-28T20:05:41.691Z,42.14
2023-03-28T20:08:16.659Z,42.22
2023-03-28T20:10:49.654Z,42.23
2023-03-28T20:13:22.693Z,42.25
2023-03-28T20:15:55.993Z,42.20
2023-03-28T20:18:29.721Z,42.30
2023-03-28T20:21:02.966Z,42.38
2023-03-28T20:23:35.940Z,42.32
2023-03-28T20:26:09.632Z,42.29
2023-03-28T20:28:42.812Z,42.32
2023-03-28T20:31:15.632Z,42.37
2023-03-28T20:33:48.899Z,42.37
2023-03-28T20:36:22.696Z,42.27
2023-03-28T20:38:55.861Z,42.27
2023-03-28T20:41:30.102Z,42.35
2023-03-28T20:44:02.740Z,42.35
2023-03-28T20:46:35.553Z,42.38
2023-03-28T20:49:08.698Z,42.41
2023-03-28T20:51:45.595Z,42.41
2023-03-28T20:54:18.710Z,42.42
2023-03-28T20:56:51.701Z,42.29
2023-03-28T20:59:24.758Z,42.35
2023-03-28T21:01:57.888Z,42.38
2023-03-28T21:04:31.831Z,42.12
2023-03-28T21:07:04.706Z,42.20
2023-03-28T21:09:37.781Z,42.03
2023-03-28T21:12:10.767Z,41.89
2023-03-28T21:14:43.628Z,41.58
2023-03-28T21:17:16.729Z,41.89
2023-03-28T21:19:49.722Z,42.07
2023-03-28T21:22:22.534Z,42.10
2023-03-28T21:24:55.785Z,42.14
2023-03-28T21:27:28.821Z,42.12
2023-03-28T21:30:01.511Z,42.17
2023-03-28T21:32:34.845Z,42.23
2023-03-28T21:35:07.587Z,42.14
2023-03-28T21:37:40.853Z,42.23
2023-03-28T21:40:13.955Z,42.21
2023-03-28T21:42:47.824Z,42.14
2023-03-28T21:45:20.815Z,42.08
2023-03-28T21:47:54.051Z,42.15
2023-03-28T21:50:27.973Z,42.16
2023-03-28T21:53:01.794Z,42.25
2023-03-28T21:55:35.009Z,42.18
2023-03-28T21:58:08.772Z,42.22
2023-03-28T22:00:41.858Z,42.36
2023-03-28T22:03:14.956Z,42.38
2023-03-28T22:05:47.865Z,42.37
2023-03-28T22:08:20.805Z,42.36
2023-03-28T22:10:54.017Z,42.42
2023-03-28T22:13:27.917Z,42.57
2023-03-28T22:16:00.928Z,42.55
2023-03-28T22:18:33.922Z,42.54
2023-03-28T22:21:20.860Z,42.49
2023-03-28T22:23:53.816Z,42.53
2023-03-28T22:26:27.045Z,42.68
2023-03-28T22:29:00.874Z,42.59
2023-03-28T22:31:33.959Z,42.61
2023-03-28T22:34:06.578Z,42.77
2023-03-28T22:36:40.112Z,42.79
2023-03-28T22:39:14.066Z,42.92
2023-03-28T22:41:47.917Z,42.74
2023-03-28T22:44:20.568Z,42.80
2023-03-28T22:47:07.832Z,42.90
2023-03-28T22:49:41.023Z,42.91
2023-03-28T22:52:14.887Z,43.03
2023-03-28T22:54:47.723Z,43.08
2023-03-28T22:57:20.989Z,43.18
2023-03-28T22:59:53.960Z,43.07
2023-03-28T23:02:27.096Z,43.08
2023-03-28T23:04:59.918Z,43.12
2023-03-28T23:07:33.145Z,43.13
2023-03-28T23:10:06.900Z,43.13
2023-03-28T23:12:39.875Z,43.18
2023-03-28T23:15:12.967Z,43.15
2023-03-28T23:17:45.863Z,43.16
2023-03-28T23:20:18.964Z,43.20
2023-03-28T23:22:51.738Z,43.17
2023-03-28T23:28:15.185Z,43.20
2023-03-28T23:30:49.013Z,43.14
2023-03-28T23:33:22.103Z,43.10
2023-03-28T23:35:54.708Z,43.03
2023-03-28T23:38:28.013Z,43.16
2023-03-28T23:41:01.091Z,43.13
2023-03-28T23:43:33.840Z,43.20
2023-03-28T23:46:06.934Z,43.22
2023-03-28T23:48:40.218Z,43.22
2023-03-28T23:51:14.038Z,43.28
2023-03-28T23:53:47.032Z,43.28
2023-03-28T23:56:19.960Z,43.24
2023-03-28T23:58:52.935Z,43.28
